Time;durP1;ratioP1;P1;durP2;ratioP2;P2;SDS_P1;SDS_P2;PMS_P1;PMS_P2;Temp;Humidity;BMP_temperature;BMP_pressure;BME280_temperature;BME280_humidity;BME280_pressure;Samples;Min_cycle;Max_cycle;Signal;HPM_P1;HPM_P2
2022/05/06 00:01:31;;;;;;;;;;;10.50;64.40;;;;;;5074495;28;20007;-71
2022/05/06 00:03:57;;;;;;;;;;;10.50;64.30;;;;;;5074387;28;19913;-72
2022/05/06 00:06:23;;;;;;;;;;;10.50;64.60;;;;;;5074445;28;20332;-71
2022/05/06 00:08:48;;;;;;;;;;;10.50;64.60;;;;;;5074466;28;19938;-71
2022/05/06 00:11:14;;;;;;;;;;;10.30;64.60;;;;;;5074340;28;19948;-71
2022/05/06 00:13:40;;;;;;;;;;;10.30;64.80;;;;;;5074284;28;19919;-71
2022/05/06 00:16:05;;;;;;;;;;;10.30;64.80;;;;;;5074269;28;19912;-71
2022/05/06 00:18:35;;;;;;;;;;;10.30;64.70;;;;;;5072668;28;19928;-71
2022/05/06 00:21:00;;;;;;;;;;;10.40;64.80;;;;;;5074126;28;20292;-72
2022/05/06 00:23:26;;;;;;;;;;;10.30;64.70;;;;;;5074105;28;19917;-71
2022/05/06 00:25:52;;;;;;;;;;;10.40;64.80;;;;;;5074246;28;20347;-71
2022/05/06 00:28:18;;;;;;;;;;;10.30;64.70;;;;;;5074086;28;20376;-71
2022/05/06 00:30:43;;;;;;;;;;;10.30;64.80;;;;;;5072782;28;19971;-71
2022/05/06 00:33:09;;;;;;;;;;;10.20;65.00;;;;;;5073847;28;20349;-72
2022/05/06 00:35:38;;;;;;;;;;;10.20;64.90;;;;;;5072709;28;19917;-71
2022/05/06 00:38:04;;;;;;;;;;;10.30;65.00;;;;;;5074403;28;20320;-71
2022/05/06 00:40:30;;;;;;;;;;;10.30;65.00;;;;;;5073962;28;20372;-71
2022/05/06 00:42:58;;;;;;;;;;;10.30;64.80;;;;;;5074265;28;19927;-71
2022/05/06 00:45:26;;;;;;;;;;;10.30;64.80;;;;;;5073735;28;19912;-70
2022/05/06 00:47:52;;;;;;;;;;;10.20;65.00;;;;;;5074072;28;19916;-71
2022/05/06 00:50:17;;;;;;;;;;;10.10;65.10;;;;;;5073648;28;19913;-73
2022/05/06 00:52:43;;;;;;;;;;;10.20;64.80;;;;;;5074064;28;20548;-71
2022/05/06 00:55:08;;;;;;;;;;;10.20;64.80;;;;;;5073501;28;20007;-71
2022/05/06 00:57:34;;;;;;;;;;;10.20;64.70;;;;;;5072372;28;19912;-71
2022/05/06 01:00:19;;;;;;;;;;;10.20;65.00;;;;;;5073454;28;19974;-71
2022/05/06 01:02:45;;;;;;;;;;;10.10;65.00;;;;;;5073765;28;19982;-72
2022/05/06 01:05:12;;;;;;;;;;;10.10;65.10;;;;;;5073229;28;19916;-71
2022/05/06 01:07:37;;;;;;;;;;;10.10;65.80;;;;;;5073771;28;20310;-72
2022/05/06 01:10:03;;;;;;;;;;;10.10;65.10;;;;;;5073346;28;19912;-71
2022/05/06 01:12:28;;;;;;;;;;;10.10;65.00;;;;;;5073624;28;19919;-72
2022/05/06 01:14:54;;;;;;;;;;;11.50;65.80;;;;;;5073150;28;20376;-72
2022/05/06 01:17:19;;;;;;;;;;;10.10;65.00;;;;;;5071669;28;19916;-72
2022/05/06 01:19:45;;;;;;;;;;;10.10;65.10;;;;;;5072980;28;19995;-72
2022/05/06 01:22:10;;;;;;;;;;;10.10;65.00;;;;;;5072876;28;19942;-71
2022/05/06 01:24:36;;;;;;;;;;;10.10;65.10;;;;;;5073203;28;19948;-71
2022/05/06 01:27:03;;;;;;;;;;;10.00;65.10;;;;;;5073266;28;19920;-71
2022/05/06 01:29:30;;;;;;;;;;;10.00;65.30;;;;;;5072802;28;19966;-71
2022/05/06 01:31:56;;;;;;;;;;;10.00;65.20;;;;;;5073082;28;19920;-71
2022/05/06 01:34:23;;;;;;;;;;;10.00;65.30;;;;;;5071412;28;19912;-71
2022/05/06 01:36:50;;;;;;;;;;;10.00;65.30;;;;;;5073019;28;19917;-71
2022/05/06 01:39:18;;;;;;;;;;;10.00;65.30;;;;;;5072675;28;19913;-72
2022/05/06 01:41:45;;;;;;;;;;;10.00;65.20;;;;;;5072906;28;19931;-71
2022/05/06 01:44:12;;;;;;;;;;;10.00;65.30;;;;;;5072484;28;20287;-72
2022/05/06 01:46:38;;;;;;;;;;;9.90;65.50;;;;;;5072724;28;19920;-71
2022/05/06 01:49:04;;;;;;;;;;;9.90;65.50;;;;;;5071080;28;20304;-71
2022/05/06 01:51:30;;;;;;;;;;;9.90;65.70;;;;;;5072314;28;19920;-71
2022/05/06 01:53:56;;;;;;;;;;;9.80;65.70;;;;;;5072332;28;19912;-71
2022/05/06 01:56:22;;;;;;;;;;;9.70;66.00;;;;;;5072362;28;19970;-72
2022/05/06 01:58:49;;;;;;;;;;;9.80;65.90;;;;;;5072294;28;19962;-71
2022/05/06 02:01:14;;;;;;;;;;;9.70;66.00;;;;;;5072141;28;20008;-71
2022/05/06 02:06:24;;;;;;;;;;;9.80;65.80;;;;;;5072683;28;19930;-70
2022/05/06 02:08:50;;;;;;;;;;;9.70;65.90;;;;;;5072132;28;20019;-71
2022/05/06 02:11:15;;;;;;;;;;;9.70;66.00;;;;;;5072050;28;19908;-71
2022/05/06 02:13:41;;;;;;;;;;;9.80;66.10;;;;;;5072551;28;19921;-71
2022/05/06 02:16:06;;;;;;;;;;;9.80;66.10;;;;;;5072042;28;19908;-71
2022/05/06 02:18:32;;;;;;;;;;;9.80;66.10;;;;;;5071232;28;19924;-72
2022/05/06 02:20:58;;;;;;;;;;;9.80;66.10;;;;;;5070534;28;19959;-72
2022/05/06 02:23:24;;;;;;;;;;;9.70;66.40;;;;;;5071790;28;19917;-71
2022/05/06 02:25:50;;;;;;;;;;;9.70;66.50;;;;;;5071702;28;19931;-71
2022/05/06 02:28:16;;;;;;;;;;;9.70;66.70;;;;;;5070526;28;20349;-71
2022/05/06 02:33:26;;;;;;;;;;;9.70;66.90;;;;;;5077241;28;19924;-72
2022/05/06 02:35:52;;;;;;;;;;;9.60;67.10;;;;;;5071466;28;20371;-71
2022/05/06 02:38:18;;;;;;;;;;;9.60;67.50;;;;;;5071955;28;20307;-72
2022/05/06 02:40:44;;;;;;;;;;;9.60;67.70;;;;;;5071414;28;19995;-71
2022/05/06 02:43:10;;;;;;;;;;;9.60;67.80;;;;;;5070266;28;20023;-72
2022/05/06 02:45:35;;;;;;;;;;;9.60;68.00;;;;;;5071782;28;20415;-71
2022/05/06 02:48:01;;;;;;;;;;;9.60;68.30;;;;;;5071468;28;20406;-72
2022/05/06 02:50:27;;;;;;;;;;;9.50;68.60;;;;;;5071430;28;20375;-73
2022/05/06 02:52:52;;;;;;;;;;;9.40;68.80;;;;;;5071784;28;19916;-71
2022/05/06 02:55:18;;;;;;;;;;;9.50;69.60;;;;;;5071325;28;19917;-72
2022/05/06 02:57:43;;;;;;;;;;;9.50;68.90;;;;;;5071743;28;20379;-72
2022/05/06 03:00:09;;;;;;;;;;;9.50;69.20;;;;;;5071531;28;20039;-72
2022/05/06 03:02:35;;;;;;;;;;;9.50;69.30;;;;;;5071511;28;20348;-72
2022/05/06 03:05:00;;;;;;;;;;;9.40;69.30;;;;;;5071352;28;19923;-71
2022/05/06 03:07:26;;;;;;;;;;;9.30;69.50;;;;;;5071259;28;19908;-72
2022/05/06 03:09:54;;;;;;;;;;;9.50;69.50;;;;;;5071412;28;19920;-72
2022/05/06 03:12:22;;;;;;;;;;;9.30;69.50;;;;;;5071640;28;19908;-71
2022/05/06 03:14:47;;;;;;;;;;;9.30;69.50;;;;;;5071175;28;19955;-72
2022/05/06 03:17:13;;;;;;;;;;;9.30;69.60;;;;;;5069702;28;19959;-71
2022/05/06 03:19:38;;;;;;;;;;;9.20;69.60;;;;;;5069866;28;19920;-72
2022/05/06 03:22:05;;;;;;;;;;;9.30;69.50;;;;;;5071339;28;20320;-71
2022/05/06 03:24:30;;;;;;;;;;;9.30;69.70;;;;;;5071064;28;19999;-72
2022/05/06 03:26:55;;;;;;;;;;;9.30;69.90;;;;;;5071134;28;20012;-71
2022/05/06 03:29:21;;;;;;;;;;;9.30;70.30;;;;;;5072316;28;19966;-72
2022/05/06 03:31:47;;;;;;;;;;;9.40;70.90;;;;;;5075227;28;19912;-72
2022/05/06 03:34:12;;;;;;;;;;;9.40;71.40;;;;;;5075170;28;20391;-71
2022/05/06 03:36:38;;;;;;;;;;;9.40;71.50;;;;;;5075117;28;20007;-71
2022/05/06 03:39:04;;;;;;;;;;;9.40;71.90;;;;;;5075449;28;19912;-71
2022/05/06 03:41:29;;;;;;;;;;;10.00;72.30;;;;;;5075184;28;19943;-71
2022/05/06 03:43:55;;;;;;;;;;;9.50;72.00;;;;;;5073490;28;20304;-71
2022/05/06 03:46:20;;;;;;;;;;;9.50;72.40;;;;;;5074816;28;20230;-71
2022/05/06 03:48:46;;;;;;;;;;;9.60;72.30;;;;;;5074876;28;19992;-71
2022/05/06 03:51:20;;;;;;;;;;;9.70;72.40;;;;;;5074868;28;19924;-72
2022/05/06 03:53:49;;;;;;;;;;;9.70;73.10;;;;;;5074810;28;19917;-71
2022/05/06 03:56:15;;;;;;;;;;;9.70;73.20;;;;;;5074809;28;19920;-72
2022/05/06 03:58:41;;;;;;;;;;;9.80;73.50;;;;;;5074770;28;19912;-72
2022/05/06 04:01:10;;;;;;;;;;;9.90;73.40;;;;;;5074594;28;19934;-71
2022/05/06 04:03:35;;;;;;;;;;;9.90;73.70;;;;;;5074597;28;19953;-71
2022/05/06 04:06:01;;;;;;;;;;;10.00;73.50;;;;;;5074850;28;19965;-72
2022/05/06 04:08:27;;;;;;;;;;;10.10;73.50;;;;;;5074508;28;20013;-72
2022/05/06 04:10:53;;;;;;;;;;;10.10;73.40;;;;;;5074259;28;19936;-72
2022/05/06 04:13:19;;;;;;;;;;;10.10;73.70;;;;;;5074429;28;20072;-71
2022/05/06 04:15:45;;;;;;;;;;;10.10;73.90;;;;;;5072798;28;20208;-71
2022/05/06 04:18:11;;;;;;;;;;;10.20;74.20;;;;;;5073976;28;20042;-72
2022/05/06 04:23:30;;;;;;;;;;;10.30;74.60;;;;;;5074161;28;19943;-71
2022/05/06 04:25:56;;;;;;;;;;;10.30;75.10;;;;;;5074166;28;20249;-72
2022/05/06 04:28:22;;;;;;;;;;;10.30;74.90;;;;;;5074109;28;20003;-71
2022/05/06 04:30:47;;;;;;;;;;;10.30;75.00;;;;;;5074004;28;20001;-71
2022/05/06 04:33:13;;;;;;;;;;;10.40;74.90;;;;;;5074327;28;20002;-71
2022/05/06 04:35:39;;;;;;;;;;;10.30;74.90;;;;;;5072711;28;19912;-73
2022/05/06 04:38:04;;;;;;;;;;;10.40;74.40;;;;;;5074497;28;19913;-72
2022/05/06 04:40:30;;;;;;;;;;;10.50;74.10;;;;;;5073052;28;19913;-71
2022/05/06 04:42:55;;;;;;;;;;;10.60;74.10;;;;;;5074274;28;19938;-73
2022/05/06 04:45:21;;;;;;;;;;;10.60;73.70;;;;;;5073769;28;19917;-71
2022/05/06 04:47:46;;;;;;;;;;;10.70;74.00;;;;;;5072560;28;19920;-71
2022/05/06 04:50:12;;;;;;;;;;;10.80;73.50;;;;;;5073799;28;20003;-71
2022/05/06 04:52:37;;;;;;;;;;;10.80;73.50;;;;;;5074131;28;19912;-71
2022/05/06 04:55:03;;;;;;;;;;;10.90;73.20;;;;;;5073595;28;19912;-71
2022/05/06 04:57:28;;;;;;;;;;;11.10;73.50;;;;;;5073997;28;19916;-71
2022/05/06 04:59:54;;;;;;;;;;;11.20;73.00;;;;;;5073467;28;19992;-71
2022/05/06 05:02:20;;;;;;;;;;;11.40;72.40;;;;;;5073719;28;20031;-72
2022/05/06 05:04:46;;;;;;;;;;;11.40;71.70;;;;;;5073485;28;20189;-72
2022/05/06 05:07:12;;;;;;;;;;;11.40;72.00;;;;;;5073756;28;20368;-71
2022/05/06 05:09:37;;;;;;;;;;;11.40;71.30;;;;;;5073347;28;19961;-72
2022/05/06 05:12:03;;;;;;;;;;;11.50;70.90;;;;;;5073571;28;19913;-71
2022/05/06 05:14:29;;;;;;;;;;;11.50;71.20;;;;;;5071876;28;20360;-70
2022/05/06 05:16:54;;;;;;;;;;;11.60;71.10;;;;;;5073142;28;19920;-70
2022/05/06 05:19:20;;;;;;;;;;;11.70;70.50;;;;;;5073467;28;19920;-70
2022/05/06 05:21:47;;;;;;;;;;;11.90;70.40;;;;;;5071724;28;20579;-69
2022/05/06 05:24:12;;;;;;;;;;;11.80;70.30;;;;;;5073455;28;19959;-72
2022/05/06 05:26:38;;;;;;;;;;;12.00;70.20;;;;;;5073494;28;20328;-70
2022/05/06 05:29:04;;;;;;;;;;;12.00;70.30;;;;;;5073359;28;19919;-71
2022/05/06 05:31:30;;;;;;;;;;;12.10;70.40;;;;;;5073012;28;19913;-70
2022/05/06 05:33:55;;;;;;;;;;;12.20;70.20;;;;;;5072562;28;20010;-70
2022/05/06 05:36:21;;;;;;;;;;;12.40;69.90;;;;;;5072649;28;20400;-71
2022/05/06 05:38:46;;;;;;;;;;;12.50;69.90;;;;;;5072819;28;19912;-70
2022/05/06 05:41:12;;;;;;;;;;;12.70;71.00;;;;;;5072684;28;19922;-71
2022/05/06 05:49:05;;;;;;;;;;;13.30;68.90;;;;;;5072527;28;19938;-74
2022/05/06 05:51:34;;;;;;;;;;;13.70;68.90;;;;;;5071948;28;20004;-70
2022/05/06 05:53:59;;;;;;;;;;;13.80;68.80;;;;;;5072619;28;20257;-71
2022/05/06 05:56:25;;;;;;;;;;;13.90;68.20;;;;;;5072724;28;20345;-71
2022/05/06 05:58:51;;;;;;;;;;;13.60;69.00;;;;;;5072357;28;19925;-71
2022/05/06 06:01:17;;;;;;;;;;;13.40;68.20;;;;;;5072257;28;19920;-71
2022/05/06 06:03:42;;;;;;;;;;;13.40;68.80;;;;;;5072055;28;20352;-71
2022/05/06 06:06:08;;;;;;;;;;;13.40;68.80;;;;;;5070832;28;19962;-70
2022/05/06 06:08:33;;;;;;;;;;;13.30;69.00;;;;;;5070459;28;19912;-70
2022/05/06 06:11:02;;;;;;;;;;;13.70;68.80;;;;;;5072100;28;20352;-70
2022/05/06 06:13:28;;;;;;;;;;;14.00;69.30;;;;;;5072178;28;19958;-70
2022/05/06 06:15:53;;;;;;;;;;;14.30;69.00;;;;;;5070624;28;20021;-70
2022/05/06 06:18:24;;;;;;;;;;;14.60;67.80;;;;;;5071874;28;19947;-69
2022/05/06 06:20:49;;;;;;;;;;;14.60;67.20;;;;;;5071752;28;19908;-71
2022/05/06 06:23:15;;;;;;;;;;;14.70;66.90;;;;;;5071557;28;19962;-70
2022/05/06 06:25:41;;;;;;;;;;;14.80;65.80;;;;;;5071679;28;19915;-71
2022/05/06 06:28:06;;;;;;;;;;;14.80;66.40;;;;;;5071634;28;19966;-71
2022/05/06 06:30:32;;;;;;;;;;;14.90;64.80;;;;;;5071968;28;19939;-71
2022/05/06 06:32:58;;;;;;;;;;;15.00;65.40;;;;;;5070403;28;19916;-71
2022/05/06 06:35:23;;;;;;;;;;;15.10;65.10;;;;;;5070419;28;19958;-71
2022/05/06 06:37:49;;;;;;;;;;;15.30;63.40;;;;;;5071973;28;20016;-72
2022/05/06 06:40:14;;;;;;;;;;;15.50;63.20;;;;;;5071838;28;19924;-71
2022/05/06 06:42:42;;;;;;;;;;;15.70;63.90;;;;;;5071950;28;19916;-71
2022/05/06 06:45:08;;;;;;;;;;;15.90;62.70;;;;;;5071581;28;19919;-71
2022/05/06 06:47:34;;;;;;;;;;;16.10;61.50;;;;;;5071968;28;19912;-72
2022/05/06 06:49:59;;;;;;;;;;;15.90;61.90;;;;;;5071589;28;19912;-71
2022/05/06 06:52:25;;;;;;;;;;;15.80;62.00;;;;;;5071560;28;19917;-71
2022/05/06 06:54:50;;;;;;;;;;;15.70;62.10;;;;;;5071555;28;19950;-72
2022/05/06 06:57:16;;;;;;;;;;;15.90;61.20;;;;;;5071795;28;19988;-72
2022/05/06 06:59:41;;;;;;;;;;;16.10;60.20;;;;;;5071153;28;19916;-71
2022/05/06 07:02:07;;;;;;;;;;;16.40;61.10;;;;;;5069945;28;19916;-71
2022/05/06 07:04:32;;;;;;;;;;;16.50;58.90;;;;;;5071170;28;19919;-71
2022/05/06 07:12:26;;;;;;;;;;;16.80;57.00;;;;;;5071968;28;19923;-70
2022/05/06 07:14:52;;;;;;;;;;;16.80;56.50;;;;;;5071078;28;19917;-73
2022/05/06 07:17:17;;;;;;;;;;;16.70;57.80;;;;;;5071198;28;20268;-71
2022/05/06 07:19:43;;;;;;;;;;;16.90;57.90;;;;;;5071470;28;19913;-71
2022/05/06 07:22:08;;;;;;;;;;;17.10;58.60;;;;;;5071086;28;19916;-71
2022/05/06 07:24:34;;;;;;;;;;;17.20;57.60;;;;;;5071083;28;19913;-70
2022/05/06 07:27:00;;;;;;;;;;;17.10;58.00;;;;;;5071294;28;19913;-71
2022/05/06 07:29:25;;;;;;;;;;;17.20;56.40;;;;;;5071151;28;19913;-71
2022/05/06 07:31:51;;;;;;;;;;;17.60;56.20;;;;;;5071149;28;20352;-71
2022/05/06 07:34:17;;;;;;;;;;;17.70;53.40;;;;;;5069632;28;19923;-72
2022/05/06 07:36:42;;;;;;;;;;;17.60;54.50;;;;;;5071052;28;19912;-70
2022/05/06 07:39:12;;;;;;;;;;;17.90;55.00;;;;;;5070765;28;20003;-70
2022/05/06 07:41:38;;;;;;;;;;;18.20;54.70;;;;;;5071115;28;20007;-71
2022/05/06 07:44:04;;;;;;;;;;;18.50;54.10;;;;;;5071042;28;19962;-70
2022/05/06 07:46:30;;;;;;;;;;;18.70;52.60;;;;;;5070806;28;19962;-70
2022/05/06 07:48:56;;;;;;;;;;;18.80;52.00;;;;;;5070851;28;19913;-70
2022/05/06 07:51:21;;;;;;;;;;;19.00;53.10;;;;;;5070756;28;19912;-70
2022/05/06 07:53:48;;;;;;;;;;;19.20;51.90;;;;;;5070716;28;19913;-70
2022/05/06 07:56:13;;;;;;;;;;;19.20;51.50;;;;;;5069242;28;19916;-70
2022/05/06 07:58:39;;;;;;;;;;;19.00;51.50;;;;;;5070653;28;19923;-70
2022/05/06 08:01:05;;;;;;;;;;;18.70;51.70;;;;;;5070538;28;19916;-71
2022/05/06 08:06:15;;;;;;;;;;;18.70;51.10;;;;;;5071261;28;19957;-71
2022/05/06 08:08:40;;;;;;;;;;;18.60;52.30;;;;;;5069331;28;20006;-70
2022/05/06 08:11:06;;;;;;;;;;;18.60;52.10;;;;;;5070760;28;19920;-71
2022/05/06 08:13:31;;;;;;;;;;;18.90;52.40;;;;;;5069408;28;20023;-70
2022/05/06 08:15:57;;;;;;;;;;;19.20;51.50;;;;;;5072406;28;19909;-71
2022/05/06 08:18:23;;;;;;;;;;;19.60;51.80;;;;;;5074335;28;19924;-71
2022/05/06 08:20:49;;;;;;;;;;;19.80;51.00;;;;;;5072900;28;20346;-72
2022/05/06 08:23:15;;;;;;;;;;;19.50;50.80;;;;;;5072952;28;19924;-72
2022/05/06 08:25:42;;;;;;;;;;;19.40;51.10;;;;;;5074007;28;19999;-72
2022/05/06 08:28:07;;;;;;;;;;;19.40;51.80;;;;;;5074177;28;19923;-72
2022/05/06 08:30:33;;;;;;;;;;;19.40;51.60;;;;;;5073908;28;19908;-72
2022/05/06 08:32:58;;;;;;;;;;;18.90;51.30;;;;;;5074512;28;19913;-70
2022/05/06 08:35:24;;;;;;;;;;;19.00;52.70;;;;;;5073903;28;19991;-70
2022/05/06 08:37:50;;;;;;;;;;;18.80;51.80;;;;;;5074341;28;19913;-69
2022/05/06 08:40:19;;;;;;;;;;;19.20;52.00;;;;;;5073815;28;19912;-70
2022/05/06 08:42:46;;;;;;;;;;;19.40;51.40;;;;;;5074036;28;19916;-70
2022/05/06 08:51:01;;;;;;;;;;;20.70;51.70;;;;;;5031168;28;19941;-69
2022/05/06 08:53:29;;;;;;;;;;;20.70;49.90;;;;;;5031267;28;20014;-69
2022/05/06 08:55:55;;;;;;;;;;;20.40;50.80;;;;;;5051236;28;20352;-69
2022/05/06 08:58:22;;;;;;;;;;;20.50;51.50;;;;;;5073671;28;19912;-69
2022/05/06 09:00:48;;;;;;;;;;;20.70;50.90;;;;;;5073606;28;19997;-69
2022/05/06 09:03:15;;;;;;;;;;;21.10;50.10;;;;;;5055291;28;20032;-69
2022/05/06 09:05:54;;;;;;;;;;;21.30;51.10;;;;;;5073697;28;19908;-68
2022/05/06 09:08:20;;;;;;;;;;;21.20;50.10;;;;;;5073487;28;20019;-69
2022/05/06 09:10:59;;;;;;;;;;;20.40;50.20;;;;;;5073355;28;19935;-69
2022/05/06 09:13:25;;;;;;;;;;;19.90;51.00;;;;;;5073319;28;19962;-68
2022/05/06 09:18:36;;;;;;;;;;;20.40;51.50;;;;;;5073250;28;20393;-69
2022/05/06 09:21:10;;;;;;;;;;;20.80;50.50;;;;;;5071903;28;19912;-70
2022/05/06 09:23:36;;;;;;;;;;;21.00;50.50;;;;;;5073180;28;19927;-71
2022/05/06 09:26:01;;;;;;;;;;;21.20;49.10;;;;;;5073178;28;19921;-72
2022/05/06 09:28:27;;;;;;;;;;;21.00;49.50;;;;;;5073123;28;19912;-70
2022/05/06 09:31:03;;;;;;;;;;;20.90;49.80;;;;;;5071521;28;20291;-70
2022/05/06 09:33:29;;;;;;;;;;;21.10;50.00;;;;;;5071814;28;19919;-69
2022/05/06 09:35:56;;;;;;;;;;;21.20;50.20;;;;;;5072943;28;19908;-69
2022/05/06 09:38:22;;;;;;;;;;;20.80;49.70;;;;;;5072490;28;19912;-69
2022/05/06 09:40:47;;;;;;;;;;;21.00;50.50;;;;;;5073237;28;19953;-71
2022/05/06 09:43:16;;;;;;;;;;;20.90;50.20;;;;;;5072641;28;19942;-72
2022/05/06 09:45:43;;;;;;;;;;;20.10;50.30;;;;;;5071206;28;19923;-70
2022/05/06 09:48:13;;;;;;;;;;;19.60;50.90;;;;;;5071334;28;19952;-73
2022/05/06 09:50:38;;;;;;;;;;;19.80;52.00;;;;;;5072325;28;19908;-72
2022/05/06 09:53:05;;;;;;;;;;;19.80;51.10;;;;;;5072854;28;19995;-69
2022/05/06 09:55:30;;;;;;;;;;;20.10;52.30;;;;;;5072396;28;20319;-68
2022/05/06 09:57:57;;;;;;;;;;;20.50;50.90;;;;;;5072285;28;19991;-68
2022/05/06 10:00:22;;;;;;;;;;;20.80;50.40;;;;;;5070464;28;19923;-68
2022/05/06 10:02:48;;;;;;;;;;;21.00;50.50;;;;;;5072601;28;20305;-68
2022/05/06 10:05:14;;;;;;;;;;;20.90;50.10;;;;;;5072277;28;20280;-68
2022/05/06 10:07:42;;;;;;;;;;;21.00;49.60;;;;;;5072494;28;19935;-69
2022/05/06 10:10:08;;;;;;;;;;;21.10;49.70;;;;;;5072166;28;19916;-69
2022/05/06 10:12:40;;;;;;;;;;;21.00;49.60;;;;;;5072418;28;19913;-69
2022/05/06 10:15:08;;;;;;;;;;;20.80;50.00;;;;;;5071841;28;19917;-70
2022/05/06 10:17:47;;;;;;;;;;;21.00;51.10;;;;;;5071833;28;20084;-69
2022/05/06 10:20:32;;;;;;;;;;;21.50;50.00;;;;;;5070493;28;20015;-70
2022/05/06 10:22:58;;;;;;;;;;;21.40;49.60;;;;;;5072252;28;19916;-71
2022/05/06 10:25:42;;;;;;;;;;;21.40;50.10;;;;;;5072063;28;19920;-70
2022/05/06 10:34:14;;;;;;;;;;;20.50;51.20;;;;;;5071794;28;19932;-70
2022/05/06 10:36:42;;;;;;;;;;;21.30;50.60;;;;;;5071761;28;20275;-70
2022/05/06 10:39:23;;;;;;;;;;;22.10;49.30;;;;;;5071466;28;20257;-70
2022/05/06 10:42:04;;;;;;;;;;;22.60;48.80;;;;;;5071450;28;20284;-69
2022/05/06 10:44:36;;;;;;;;;;;22.80;48.70;;;;;;5071377;28;19913;-70
2022/05/06 10:47:14;;;;;;;;;;;22.80;48.30;;;;;;5071639;28;19916;-69
2022/05/06 10:49:39;;;;;;;;;;;23.00;48.30;;;;;;5071668;28;19920;-70
2022/05/06 10:52:14;;;;;;;;;;;22.60;48.30;;;;;;5071790;28;20276;-69
2022/05/06 10:54:43;;;;;;;;;;;21.80;50.00;;;;;;5071403;28;20395;-69
2022/05/06 10:57:08;;;;;;;;;;;22.00;49.50;;;;;;5071797;28;19916;-69
2022/05/06 10:59:52;;;;;;;;;;;22.50;49.00;;;;;;5071509;28;19924;-70
2022/05/06 11:02:20;;;;;;;;;;;22.90;48.40;;;;;;5071543;28;19920;-70
2022/05/06 11:04:53;;;;;;;;;;;23.10;48.50;;;;;;5071407;28;20335;-69
2022/05/06 11:07:18;;;;;;;;;;;23.30;49.20;;;;;;5071467;28;20371;-71
2022/05/06 11:09:44;;;;;;;;;;;22.90;48.40;;;;;;5071312;28;19913;-71
2022/05/06 11:12:10;;;;;;;;;;;22.80;48.50;;;;;;5070058;28;19916;-71
2022/05/06 11:14:36;;;;;;;;;;;22.80;48.70;;;;;;5071191;28;19952;-71
2022/05/06 11:17:14;;;;;;;;;;;22.40;48.80;;;;;;5071146;28;20376;-71
2022/05/06 11:19:39;;;;;;;;;;;22.10;48.60;;;;;;5071246;28;19932;-72
2022/05/06 11:22:05;;;;;;;;;;;21.60;48.90;;;;;;5069886;28;19917;-72
2022/05/06 11:24:31;;;;;;;;;;;21.10;49.50;;;;;;5071461;28;20380;-73
2022/05/06 11:27:10;;;;;;;;;;;21.50;49.90;;;;;;5071213;28;20000;-73
2022/05/06 11:29:56;;;;;;;;;;;21.90;49.20;;;;;;5071162;28;19995;-72
2022/05/06 11:32:31;;;;;;;;;;;22.10;49.00;;;;;;5070993;28;19915;-73
2022/05/06 11:34:59;;;;;;;;;;;22.10;49.00;;;;;;5071153;28;19917;-71
2022/05/06 11:37:32;;;;;;;;;;;22.00;49.00;;;;;;5069796;28;19951;-71
2022/05/06 11:42:41;;;;;;;;;;;22.00;49.10;;;;;;5071431;28;19920;-72
2022/05/06 11:47:51;;;;;;;;;;;22.00;48.80;;;;;;5070863;28;19915;-72
2022/05/06 11:50:17;;;;;;;;;;;22.10;48.70;;;;;;5071515;28;19917;-72
2022/05/06 11:52:44;;;;;;;;;;;22.20;49.10;;;;;;5074774;28;19912;-72
2022/05/06 11:55:09;;;;;;;;;;;22.40;48.50;;;;;;5074594;28;19920;-73
2022/05/06 11:57:35;;;;;;;;;;;22.60;48.30;;;;;;5074696;28;19965;-71
2022/05/06 12:00:05;;;;;;;;;;;22.40;48.50;;;;;;5074306;28;20112;-74
2022/05/06 12:02:30;;;;;;;;;;;21.80;48.70;;;;;;5056092;28;19979;-72
2022/05/06 12:04:56;;;;;;;;;;;21.80;49.00;;;;;;5074240;28;20407;-71
2022/05/06 12:07:39;;;;;;;;;;;21.80;48.60;;;;;;5073980;28;20271;-71
2022/05/06 12:10:04;;;;;;;;;;;21.70;48.90;;;;;;5074119;28;19935;-71
2022/05/06 12:12:30;;;;;;;;;;;21.60;49.10;;;;;;5074368;28;20333;-72
2022/05/06 12:15:08;;;;;;;;;;;21.50;49.00;;;;;;5074073;28;20003;-71
2022/05/06 12:17:35;;;;;;;;;;;20.60;50.00;;;;;;5074003;28;19924;-72
2022/05/06 12:20:01;;;;;;;;;;;19.90;50.50;;;;;;5074290;28;19915;-72
2022/05/06 12:22:26;;;;;;;;;;;19.60;51.00;;;;;;5074728;28;19920;-71
2022/05/06 12:24:57;;;;;;;;;;;19.70;50.80;;;;;;5074122;28;19916;-72
2022/05/06 12:27:23;;;;;;;;;;;19.90;50.90;;;;;;5074389;28;19925;-71
2022/05/06 12:29:48;;;;;;;;;;;19.70;50.80;;;;;;5074065;28;20249;-72
2022/05/06 12:32:14;;;;;;;;;;;19.70;51.00;;;;;;5074490;28;19994;-71
2022/05/06 12:34:39;;;;;;;;;;;20.00;51.50;;;;;;5074390;28;19912;-71
2022/05/06 12:37:12;;;;;;;;;;;20.40;51.60;;;;;;5073942;28;19923;-71
2022/05/06 12:39:44;;;;;;;;;;;20.20;51.10;;;;;;5074018;28;19959;-71
2022/05/06 12:42:17;;;;;;;;;;;19.90;50.80;;;;;;5074181;28;19962;-71
2022/05/06 12:44:43;;;;;;;;;;;20.00;50.80;;;;;;5072915;28;19913;-71
2022/05/06 12:47:12;;;;;;;;;;;20.00;50.60;;;;;;5074317;28;19921;-72
2022/05/06 12:49:40;;;;;;;;;;;20.10;50.80;;;;;;5073748;28;19918;-71
2022/05/06 12:52:10;;;;;;;;;;;20.00;50.70;;;;;;5073960;28;20344;-72
2022/05/06 12:54:36;;;;;;;;;;;20.20;51.30;;;;;;5073721;28;19912;-71
2022/05/06 12:57:02;;;;;;;;;;;20.10;50.50;;;;;;5073836;28;20011;-72
2022/05/06 12:59:27;;;;;;;;;;;20.00;50.90;;;;;;5072155;28;20382;-71
2022/05/06 13:01:53;;;;;;;;;;;20.00;50.90;;;;;;5073226;28;20043;-71
2022/05/06 13:04:19;;;;;;;;;;;20.20;51.10;;;;;;5071878;28;19919;-72
2022/05/06 13:06:45;;;;;;;;;;;20.10;50.50;;;;;;5073347;28;19912;-71
2022/05/06 13:09:11;;;;;;;;;;;19.90;50.80;;;;;;5073377;28;20396;-72
2022/05/06 13:11:36;;;;;;;;;;;19.70;51.00;;;;;;5073488;28;20034;-71
2022/05/06 13:14:02;;;;;;;;;;;19.40;51.20;;;;;;5071876;28;20396;-72
2022/05/06 13:16:28;;;;;;;;;;;19.20;51.70;;;;;;5072015;28;20073;-72
2022/05/06 13:18:54;;;;;;;;;;;19.10;52.00;;;;;;5073001;28;19986;-71
2022/05/06 13:21:20;;;;;;;;;;;19.10;51.80;;;;;;5073378;28;20420;-71
2022/05/06 13:23:45;;;;;;;;;;;18.70;52.20;;;;;;5073304;28;19922;-71
2022/05/06 13:26:11;;;;;;;;;;;18.90;52.80;;;;;;5073265;28;20003;-71
2022/05/06 13:28:37;;;;;;;;;;;19.00;52.50;;;;;;5073511;28;19912;-71
2022/05/06 13:31:02;;;;;;;;;;;18.90;52.50;;;;;;5073061;28;20409;-72
2022/05/06 13:33:29;;;;;;;;;;;19.00;52.60;;;;;;5073145;28;20261;-71
2022/05/06 13:35:55;;;;;;;;;;;19.10;52.80;;;;;;5072782;28;20360;-72
2022/05/06 13:38:20;;;;;;;;;;;19.20;52.70;;;;;;5072716;28;20023;-71
2022/05/06 13:40:48;;;;;;;;;;;19.00;53.00;;;;;;5072674;28;19962;-72
2022/05/06 13:43:14;;;;;;;;;;;18.90;52.80;;;;;;5071325;28;19916;-73
2022/05/06 13:45:40;;;;;;;;;;;18.80;53.00;;;;;;5072629;28;20368;-73
2022/05/06 13:48:05;;;;;;;;;;;18.80;53.10;;;;;;5073295;28;19935;-71
2022/05/06 13:50:31;;;;;;;;;;;18.60;53.00;;;;;;5072527;28;20263;-71
2022/05/06 13:52:56;;;;;;;;;;;18.60;53.40;;;;;;5071777;28;20003;-71
2022/05/06 13:59:03;;;;;;;;;;;18.60;53.50;;;;;;5072540;28;19920;-72
2022/05/06 14:00:51;;;;;;;;;;;18.60;53.30;;;;;;5072339;28;20014;-73
2022/05/06 14:03:17;;;;;;;;;;;18.60;53.70;;;;;;5072275;28;20378;-72
2022/05/06 14:05:43;;;;;;;;;;;18.60;53.20;;;;;;5072096;28;19999;-72
2022/05/06 14:08:08;;;;;;;;;;;18.50;53.50;;;;;;5072340;28;19926;-72
2022/05/06 14:10:34;;;;;;;;;;;18.40;53.80;;;;;;5071014;28;20007;-72
2022/05/06 14:12:59;;;;;;;;;;;18.40;53.70;;;;;;5071977;28;19960;-72
2022/05/06 14:15:25;;;;;;;;;;;18.30;53.50;;;;;;5072198;28;20253;-72
2022/05/06 14:17:50;;;;;;;;;;;18.30;53.90;;;;;;5071958;28;20403;-72
2022/05/06 14:20:16;;;;;;;;;;;18.40;53.90;;;;;;5072002;28;20008;-72
2022/05/06 14:22:41;;;;;;;;;;;18.50;53.80;;;;;;5072453;28;19920;-72
2022/05/06 14:25:07;;;;;;;;;;;18.40;54.20;;;;;;5071793;28;20376;-71
2022/05/06 14:27:32;;;;;;;;;;;18.60;53.80;;;;;;5072153;28;20025;-72
2022/05/06 14:29:58;;;;;;;;;;;18.60;53.40;;;;;;5071703;28;19963;-71
2022/05/06 14:32:23;;;;;;;;;;;18.50;53.40;;;;;;5070750;28;19917;-71
2022/05/06 14:34:49;;;;;;;;;;;18.50;53.30;;;;;;5071591;28;19912;-72
2022/05/06 14:37:14;;;;;;;;;;;18.50;53.40;;;;;;5072212;28;19917;-72
2022/05/06 14:39:40;;;;;;;;;;;18.50;53.50;;;;;;5071870;28;19915;-72
2022/05/06 14:42:05;;;;;;;;;;;18.50;53.50;;;;;;5071878;28;19925;-72
2022/05/06 14:44:31;;;;;;;;;;;18.50;53.60;;;;;;5071820;28;19912;-72
2022/05/06 14:46:59;;;;;;;;;;;18.60;53.70;;;;;;5071652;28;19920;-71
2022/05/06 14:49:25;;;;;;;;;;;18.60;53.70;;;;;;5071725;28;19915;-71
2022/05/06 14:51:50;;;;;;;;;;;18.50;53.30;;;;;;5071866;28;19917;-71
2022/05/06 14:54:16;;;;;;;;;;;18.40;53.70;;;;;;5071738;28;19915;-72
2022/05/06 14:56:41;;;;;;;;;;;18.40;53.60;;;;;;5071570;28;19938;-71
2022/05/06 14:59:07;;;;;;;;;;;18.40;53.60;;;;;;5071457;28;19909;-71
2022/05/06 15:01:34;;;;;;;;;;;18.40;53.50;;;;;;5071590;28;20004;-71